sensor_id;sensor_type;location;lat;lon;timestamp;pressure;altitude;pressure_sealevel;temperature;humidity
17521;BME280;8878;-33.370;-70.552;2022-09-14T00:01:54;92838.78;;;11.30;82.94
17521;BME280;8878;-33.370;-70.552;2022-09-14T00:04:23;92839.25;;;11.22;84.18
17521;BME280;8878;-33.370;-70.552;2022-09-14T00:06:53;92840.56;;;11.20;85.04
17521;BME280;8878;-33.370;-70.552;2022-09-14T00:09:25;92841.56;;;11.14;84.12
17521;BME280;8878;-33.370;-70.552;2022-09-14T00:11:54;92842.06;;;11.11;85.32
17521;BME280;8878;-33.370;-70.552;2022-09-14T00:14:24;92846.78;;;11.09;86.17
17521;BME280;8878;-33.370;-70.552;2022-09-14T00:16:53;92849.59;;;10.97;84.88
17521;BME280;8878;-33.370;-70.552;2022-09-14T00:19:24;92850.94;;;10.99;87.51
17521;BME280;8878;-33.370;-70.552;2022-09-14T00:21:55;92853.34;;;11.01;87.13
17521;BME280;8878;-33.370;-70.552;2022-09-14T00:24:28;92853.84;;;10.98;86.82
17521;BME280;8878;-33.370;-70.552;2022-09-14T00:26:57;92853.88;;;10.76;85.83
17521;BME280;8878;-33.370;-70.552;2022-09-14T00:29:29;92865.22;;;10.72;89.22
17521;BME280;8878;-33.370;-70.552;2022-09-14T00:31:59;92861.56;;;10.78;89.42
17521;BME280;8878;-33.370;-70.552;2022-09-14T00:34:28;92861.84;;;10.81;86.88
17521;BME280;8878;-33.370;-70.552;2022-09-14T00:36:57;92862.38;;;10.78;86.79
17521;BME280;8878;-33.370;-70.552;2022-09-14T00:39:28;92876.03;;;10.75;89.05
17521;BME280;8878;-33.370;-70.552;2022-09-14T00:41:58;92870.69;;;10.65;90.37
17521;BME280;8878;-33.370;-70.552;2022-09-14T00:44:58;92872.72;;;10.58;90.97
17521;BME280;8878;-33.370;-70.552;2022-09-14T00:47:29;92867.06;;;10.49;91.95
17521;BME280;8878;-33.370;-70.552;2022-09-14T00:50:01;92870.19;;;10.46;92.99
17521;BME280;8878;-33.370;-70.552;2022-09-14T00:52:32;92871.44;;;10.39;92.94
17521;BME280;8878;-33.370;-70.552;2022-09-14T00:55:07;92867.94;;;10.33;92.77
17521;BME280;8878;-33.370;-70.552;2022-09-14T00:57:39;92871.31;;;10.29;92.98
17521;BME280;8878;-33.370;-70.552;2022-09-14T01:00:11;92882.41;;;10.31;93.45
17521;BME280;8878;-33.370;-70.552;2022-09-14T01:02:41;92874.81;;;10.34;93.03
17521;BME280;8878;-33.370;-70.552;2022-09-14T01:05:11;92880.38;;;10.38;93.32
17521;BME280;8878;-33.370;-70.552;2022-09-14T01:07:55;92878.31;;;10.40;94.37
17521;BME280;8878;-33.370;-70.552;2022-09-14T01:10:38;92897.28;;;10.37;94.00
17521;BME280;8878;-33.370;-70.552;2022-09-14T01:13:25;92897.09;;;10.22;92.10
17521;BME280;8878;-33.370;-70.552;2022-09-14T01:16:04;92892.69;;;10.10;91.89
17521;BME280;8878;-33.370;-70.552;2022-09-14T01:18:39;92896.44;;;10.14;93.32
17521;BME280;8878;-33.370;-70.552;2022-09-14T01:21:13;92895.16;;;10.17;93.58
17521;BME280;8878;-33.370;-70.552;2022-09-14T01:23:49;92901.38;;;10.11;94.20
17521;BME280;8878;-33.370;-70.552;2022-09-14T01:26:45;92905.31;;;10.08;95.33
17521;BME280;8878;-33.370;-70.552;2022-09-14T01:29:19;92897.91;;;10.05;94.59
17521;BME280;8878;-33.370;-70.552;2022-09-14T01:31:54;92896.47;;;9.98;93.71
17521;BME280;8878;-33.370;-70.552;2022-09-14T01:34:30;92901.97;;;9.96;95.02
17521;BME280;8878;-33.370;-70.552;2022-09-14T01:37:09;92896.94;;;9.95;96.10
17521;BME280;8878;-33.370;-70.552;2022-09-14T01:39:42;92894.25;;;9.90;96.57
17521;BME280;8878;-33.370;-70.552;2022-09-14T01:42:13;92900.81;;;9.87;97.00
17521;BME280;8878;-33.370;-70.552;2022-09-14T01:44:47;92902.56;;;9.81;95.67
17521;BME280;8878;-33.370;-70.552;2022-09-14T01:47:19;92906.09;;;9.87;97.26
17521;BME280;8878;-33.370;-70.552;2022-09-14T01:49:56;92898.25;;;9.92;96.54
17521;BME280;8878;-33.370;-70.552;2022-09-14T01:52:30;92898.81;;;9.94;96.20
17521;BME280;8878;-33.370;-70.552;2022-09-14T01:55:06;92900.31;;;9.90;96.61
17521;BME280;8878;-33.370;-70.552;2022-09-14T01:57:41;92906.00;;;9.82;97.32
17521;BME280;8878;-33.370;-70.552;2022-09-14T02:00:15;92900.66;;;9.77;97.67
17521;BME280;8878;-33.370;-70.552;2022-09-14T02:02:51;92901.25;;;9.62;97.72
17521;BME280;8878;-33.370;-70.552;2022-09-14T02:05:26;92906.69;;;9.56;99.74
17521;BME280;8878;-33.370;-70.552;2022-09-14T02:07:56;92901.19;;;9.57;100.00
17521;BME280;8878;-33.370;-70.552;2022-09-14T02:10:26;92908.75;;;9.54;100.00
17521;BME280;8878;-33.370;-70.552;2022-09-14T02:12:56;92910.75;;;9.47;100.00
17521;BME280;8878;-33.370;-70.552;2022-09-14T02:15:28;92907.47;;;9.39;100.00
17521;BME280;8878;-33.370;-70.552;2022-09-14T02:17:57;92907.63;;;9.33;99.37
17521;BME280;8878;-33.370;-70.552;2022-09-14T02:20:29;92903.41;;;9.15;99.50
17521;BME280;8878;-33.370;-70.552;2022-09-14T02:22:59;92899.81;;;9.21;100.00
17521;BME280;8878;-33.370;-70.552;2022-09-14T02:25:28;92899.44;;;9.29;98.27
17521;BME280;8878;-33.370;-70.552;2022-09-14T02:27:57;92903.16;;;9.33;96.79
17521;BME280;8878;-33.370;-70.552;2022-09-14T02:30:32;92899.03;;;9.37;96.15
17521;BME280;8878;-33.370;-70.552;2022-09-14T02:33:10;92907.97;;;9.36;95.28
17521;BME280;8878;-33.370;-70.552;2022-09-14T02:35:47;92907.06;;;9.31;95.47
17521;BME280;8878;-33.370;-70.552;2022-09-14T02:38:20;92902.69;;;9.20;94.35
17521;BME280;8878;-33.370;-70.552;2022-09-14T02:40:57;92908.72;;;9.03;95.22
17521;BME280;8878;-33.370;-70.552;2022-09-14T02:43:37;92899.75;;;9.16;95.77
17521;BME280;8878;-33.370;-70.552;2022-09-14T02:46:16;92905.88;;;9.22;96.13
17521;BME280;8878;-33.370;-70.552;2022-09-14T02:48:51;92894.94;;;9.13;95.17
17521;BME280;8878;-33.370;-70.552;2022-09-14T02:51:28;92896.94;;;9.06;97.01
17521;BME280;8878;-33.370;-70.552;2022-09-14T02:54:02;92904.75;;;9.01;97.20
17521;BME280;8878;-33.370;-70.552;2022-09-14T02:56:33;92895.19;;;9.12;97.05
17521;BME280;8878;-33.370;-70.552;2022-09-14T02:59:03;92896.53;;;9.14;96.02
17521;BME280;8878;-33.370;-70.552;2022-09-14T03:01:34;92892.53;;;9.12;97.03
17521;BME280;8878;-33.370;-70.552;2022-09-14T03:04:04;92897.75;;;9.07;96.41
17521;BME280;8878;-33.370;-70.552;2022-09-14T03:06:33;92897.97;;;9.05;96.34
17521;BME280;8878;-33.370;-70.552;2022-09-14T03:09:02;92894.06;;;9.08;95.24
17521;BME280;8878;-33.370;-70.552;2022-09-14T03:11:32;92906.44;;;9.07;94.60
17521;BME280;8878;-33.370;-70.552;2022-09-14T03:14:01;92902.78;;;9.08;93.72
17521;BME280;8878;-33.370;-70.552;2022-09-14T03:16:31;92905.78;;;9.00;94.11
17521;BME280;8878;-33.370;-70.552;2022-09-14T03:19:02;92902.28;;;8.94;94.86
17521;BME280;8878;-33.370;-70.552;2022-09-14T03:21:31;92901.63;;;8.87;94.86
17521;BME280;8878;-33.370;-70.552;2022-09-14T03:24:02;92898.00;;;8.77;95.85
17521;BME280;8878;-33.370;-70.552;2022-09-14T03:26:32;92896.41;;;8.76;96.93
17521;BME280;8878;-33.370;-70.552;2022-09-14T03:29:03;92897.34;;;8.70;96.65
17521;BME280;8878;-33.370;-70.552;2022-09-14T03:31:33;92892.31;;;8.68;97.97
17521;BME280;8878;-33.370;-70.552;2022-09-14T03:34:04;92896.78;;;8.68;97.53
17521;BME280;8878;-33.370;-70.552;2022-09-14T03:36:33;92897.19;;;8.59;97.97
17521;BME280;8878;-33.370;-70.552;2022-09-14T03:39:02;92896.38;;;8.59;98.92
17521;BME280;8878;-33.370;-70.552;2022-09-14T03:41:31;92902.53;;;8.64;99.09
17521;BME280;8878;-33.370;-70.552;2022-09-14T03:44:01;92895.75;;;8.69;98.29
17521;BME280;8878;-33.370;-70.552;2022-09-14T03:46:30;92900.69;;;8.65;97.41
17521;BME280;8878;-33.370;-70.552;2022-09-14T03:49:00;92905.59;;;8.61;97.50
17521;BME280;8878;-33.370;-70.552;2022-09-14T03:51:33;92899.25;;;8.46;98.64
17521;BME280;8878;-33.370;-70.552;2022-09-14T03:54:02;92901.88;;;8.46;99.77
17521;BME280;8878;-33.370;-70.552;2022-09-14T03:56:32;92900.78;;;8.42;100.00
17521;BME280;8878;-33.370;-70.552;2022-09-14T03:59:02;92902.69;;;8.46;100.00
17521;BME280;8878;-33.370;-70.552;2022-09-14T04:01:31;92908.44;;;8.43;100.00
17521;BME280;8878;-33.370;-70.552;2022-09-14T04:04:00;92901.72;;;8.36;100.00
17521;BME280;8878;-33.370;-70.552;2022-09-14T04:06:31;92906.25;;;8.40;100.00
17521;BME280;8878;-33.370;-70.552;2022-09-14T04:09:01;92910.31;;;8.31;100.00
17521;BME280;8878;-33.370;-70.552;2022-09-14T04:11:30;92907.19;;;8.34;100.00
17521;BME280;8878;-33.370;-70.552;2022-09-14T04:14:01;92902.41;;;8.31;100.00
17521;BME280;8878;-33.370;-70.552;2022-09-14T04:16:30;92892.47;;;8.21;100.00
17521;BME280;8878;-33.370;-70.552;2022-09-14T04:19:00;92908.63;;;8.02;100.00
17521;BME280;8878;-33.370;-70.552;2022-09-14T04:21:31;92908.75;;;7.95;100.00
17521;BME280;8878;-33.370;-70.552;2022-09-14T04:24:00;92904.31;;;7.72;100.00
17521;BME280;8878;-33.370;-70.552;2022-09-14T04:26:30;92907.38;;;7.69;100.00
17521;BME280;8878;-33.370;-70.552;2022-09-14T04:28:59;92895.84;;;7.70;100.00
17521;BME280;8878;-33.370;-70.552;2022-09-14T04:31:29;92902.03;;;7.64;100.00
17521;BME280;8878;-33.370;-70.552;2022-09-14T04:33:58;92902.25;;;7.63;100.00
17521;BME280;8878;-33.370;-70.552;2022-09-14T04:36:30;92903.50;;;7.60;100.00
17521;BME280;8878;-33.370;-70.552;2022-09-14T04:39:01;92906.81;;;7.67;100.00
17521;BME280;8878;-33.370;-70.552;2022-09-14T04:41:31;92903.63;;;7.65;100.00
17521;BME280;8878;-33.370;-70.552;2022-09-14T04:44:01;92913.91;;;7.78;100.00
17521;BME280;8878;-33.370;-70.552;2022-09-14T04:46:31;92902.94;;;7.81;100.00
17521;BME280;8878;-33.370;-70.552;2022-09-14T04:49:01;92901.56;;;7.67;100.00
17521;BME280;8878;-33.370;-70.552;2022-09-14T04:51:33;92895.16;;;7.75;100.00
17521;BME280;8878;-33.370;-70.552;2022-09-14T04:54:04;92897.47;;;7.71;100.00
17521;BME280;8878;-33.370;-70.552;2022-09-14T04:56:34;92886.47;;;7.74;100.00
17521;BME280;8878;-33.370;-70.552;2022-09-14T04:59:04;92897.56;;;7.76;100.00
17521;BME280;8878;-33.370;-70.552;2022-09-14T05:01:36;92889.00;;;7.69;100.00
17521;BME280;8878;-33.370;-70.552;2022-09-14T05:04:07;92882.38;;;7.78;100.00
17521;BME280;8878;-33.370;-70.552;2022-09-14T05:06:39;92878.72;;;7.79;100.00
17521;BME280;8878;-33.370;-70.552;2022-09-14T05:09:11;92872.69;;;7.79;100.00
17521;BME280;8878;-33.370;-70.552;2022-09-14T05:11:41;92877.00;;;7.85;100.00
17521;BME280;8878;-33.370;-70.552;2022-09-14T05:14:11;92870.59;;;7.93;100.00
17521;BME280;8878;-33.370;-70.552;2022-09-14T05:16:41;92870.81;;;8.03;100.00
17521;BME280;8878;-33.370;-70.552;2022-09-14T05:19:12;92863.47;;;8.05;100.00
17521;BME280;8878;-33.370;-70.552;2022-09-14T05:21:45;92858.56;;;7.97;100.00
17521;BME280;8878;-33.370;-70.552;2022-09-14T05:24:15;92860.88;;;7.93;100.00
17521;BME280;8878;-33.370;-70.552;2022-09-14T05:26:46;92859.50;;;7.91;100.00
17521;BME280;8878;-33.370;-70.552;2022-09-14T05:29:16;92851.09;;;7.77;100.00
17521;BME280;8878;-33.370;-70.552;2022-09-14T05:31:46;92852.47;;;7.79;100.00
17521;BME280;8878;-33.370;-70.552;2022-09-14T05:34:15;92850.06;;;7.78;100.00
17521;BME280;8878;-33.370;-70.552;2022-09-14T05:36:47;92842.97;;;7.78;100.00
17521;BME280;8878;-33.370;-70.552;2022-09-14T05:39:18;92845.59;;;7.78;100.00
17521;BME280;8878;-33.370;-70.552;2022-09-14T05:41:48;92841.94;;;7.79;100.00
17521;BME280;8878;-33.370;-70.552;2022-09-14T05:44:18;92837.63;;;7.73;100.00
17521;BME280;8878;-33.370;-70.552;2022-09-14T05:46:47;92841.06;;;7.62;100.00
17521;BME280;8878;-33.370;-70.552;2022-09-14T05:49:16;92838.53;;;7.67;100.00
17521;BME280;8878;-33.370;-70.552;2022-09-14T05:51:47;92833.19;;;7.74;100.00
17521;BME280;8878;-33.370;-70.552;2022-09-14T05:54:17;92835.22;;;7.72;100.00
17521;BME280;8878;-33.370;-70.552;2022-09-14T05:56:46;92829.44;;;7.58;100.00
17521;BME280;8878;-33.370;-70.552;2022-09-14T05:59:15;92819.28;;;7.50;100.00
17521;BME280;8878;-33.370;-70.552;2022-09-14T06:01:45;92807.16;;;7.49;100.00
17521;BME280;8878;-33.370;-70.552;2022-09-14T06:04:14;92813.53;;;7.53;100.00
17521;BME280;8878;-33.370;-70.552;2022-09-14T06:06:43;92806.16;;;7.38;100.00
17521;BME280;8878;-33.370;-70.552;2022-09-14T06:09:14;92810.50;;;7.44;100.00
17521;BME280;8878;-33.370;-70.552;2022-09-14T06:11:43;92802.63;;;7.44;100.00
17521;BME280;8878;-33.370;-70.552;2022-09-14T06:14:12;92810.25;;;7.46;100.00
17521;BME280;8878;-33.370;-70.552;2022-09-14T06:16:45;92801.59;;;7.45;100.00
17521;BME280;8878;-33.370;-70.552;2022-09-14T06:19:15;92799.53;;;7.36;100.00
17521;BME280;8878;-33.370;-70.552;2022-09-14T06:21:44;92798.38;;;7.32;100.00
17521;BME280;8878;-33.370;-70.552;2022-09-14T06:24:15;92795.66;;;7.27;100.00
17521;BME280;8878;-33.370;-70.552;2022-09-14T06:26:44;92798.16;;;7.33;100.00
17521;BME280;8878;-33.370;-70.552;2022-09-14T06:29:14;92798.63;;;7.42;100.00
17521;BME280;8878;-33.370;-70.552;2022-09-14T06:31:43;92798.41;;;7.43;100.00
17521;BME280;8878;-33.370;-70.552;2022-09-14T06:34:12;92797.13;;;7.46;100.00
17521;BME280;8878;-33.370;-70.552;2022-09-14T06:36:41;92796.56;;;7.44;100.00
17521;BME280;8878;-33.370;-70.552;2022-09-14T06:39:11;92801.25;;;7.42;100.00
17521;BME280;8878;-33.370;-70.552;2022-09-14T06:41:42;92797.03;;;7.41;100.00
17521;BME280;8878;-33.370;-70.552;2022-09-14T06:44:11;92796.91;;;7.36;100.00
17521;BME280;8878;-33.370;-70.552;2022-09-14T06:46:40;92780.50;;;7.29;100.00
17521;BME280;8878;-33.370;-70.552;2022-09-14T06:49:12;92781.97;;;7.25;100.00
17521;BME280;8878;-33.370;-70.552;2022-09-14T06:51:47;92781.41;;;7.11;100.00
17521;BME280;8878;-33.370;-70.552;2022-09-14T06:54:17;92781.63;;;6.98;100.00
17521;BME280;8878;-33.370;-70.552;2022-09-14T06:56:48;92770.13;;;6.99;100.00
17521;BME280;8878;-33.370;-70.552;2022-09-14T06:59:17;92771.03;;;7.16;100.00
17521;BME280;8878;-33.370;-70.552;2022-09-14T07:01:47;92771.28;;;7.03;100.00
17521;BME280;8878;-33.370;-70.552;2022-09-14T07:04:17;92772.16;;;6.97;100.00
17521;BME280;8878;-33.370;-70.552;2022-09-14T07:06:48;92775.72;;;7.02;100.00
17521;BME280;8878;-33.370;-70.552;2022-09-14T07:09:18;92771.50;;;7.01;100.00
17521;BME280;8878;-33.370;-70.552;2022-09-14T07:11:49;92761.00;;;7.01;100.00
17521;BME280;8878;-33.370;-70.552;2022-09-14T07:14:19;92763.75;;;7.06;100.00
17521;BME280;8878;-33.370;-70.552;2022-09-14T07:16:49;92761.44;;;6.98;100.00
17521;BME280;8878;-33.370;-70.552;2022-09-14T07:19:18;92757.34;;;6.91;100.00
17521;BME280;8878;-33.370;-70.552;2022-09-14T07:21:47;92750.16;;;6.98;100.00
17521;BME280;8878;-33.370;-70.552;2022-09-14T07:24:17;92755.63;;;6.85;100.00
17521;BME280;8878;-33.370;-70.552;2022-09-14T07:26:48;92756.53;;;6.90;100.00
17521;BME280;8878;-33.370;-70.552;2022-09-14T07:29:19;92751.44;;;6.95;100.00
17521;BME280;8878;-33.370;-70.552;2022-09-14T07:31:49;92752.31;;;6.89;100.00
17521;BME280;8878;-33.370;-70.552;2022-09-14T07:34:19;92753.72;;;6.80;100.00
17521;BME280;8878;-33.370;-70.552;2022-09-14T07:36:49;92747.31;;;6.76;100.00
17521;BME280;8878;-33.370;-70.552;2022-09-14T07:39:18;92748.91;;;6.77;100.00
17521;BME280;8878;-33.370;-70.552;2022-09-14T07:41:49;92746.63;;;6.69;100.00
17521;BME280;8878;-33.370;-70.552;2022-09-14T07:44:19;92745.16;;;6.73;100.00
17521;BME280;8878;-33.370;-70.552;2022-09-14T07:46:48;92745.72;;;6.75;100.00
17521;BME280;8878;-33.370;-70.552;2022-09-14T07:49:17;92749.81;;;6.71;100.00
17521;BME280;8878;-33.370;-70.552;2022-09-14T07:51:48;92744.56;;;6.71;100.00
17521;BME280;8878;-33.370;-70.552;2022-09-14T07:54:17;92731.13;;;6.79;100.00
17521;BME280;8878;-33.370;-70.552;2022-09-14T07:56:49;92736.59;;;6.89;100.00
17521;BME280;8878;-33.370;-70.552;2022-09-14T07:59:18;92724.84;;;6.92;100.00
17521;BME280;8878;-33.370;-70.552;2022-09-14T08:01:47;92729.63;;;6.83;100.00
17521;BME280;8878;-33.370;-70.552;2022-09-14T08:04:17;92731.47;;;6.71;100.00
17521;BME280;8878;-33.370;-70.552;2022-09-14T08:06:47;92736.56;;;6.43;100.00
17521;BME280;8878;-33.370;-70.552;2022-09-14T08:09:16;92744.44;;;6.31;100.00
17521;BME280;8878;-33.370;-70.552;2022-09-14T08:11:45;92740.09;;;6.25;100.00
17521;BME280;8878;-33.370;-70.552;2022-09-14T08:14:16;92746.56;;;6.22;100.00
17521;BME280;8878;-33.370;-70.552;2022-09-14T08:16:45;92745.88;;;6.15;100.00
17521;BME280;8878;-33.370;-70.552;2022-09-14T08:19:16;92731.75;;;6.16;100.00
17521;BME280;8878;-33.370;-70.552;2022-09-14T08:21:47;92730.84;;;6.22;100.00
17521;BME280;8878;-33.370;-70.552;2022-09-14T08:24:18;92724.91;;;6.15;100.00
17521;BME280;8878;-33.370;-70.552;2022-09-14T08:26:48;92732.41;;;6.12;100.00
17521;BME280;8878;-33.370;-70.552;2022-09-14T08:29:19;92738.81;;;6.27;100.00
17521;BME280;8878;-33.370;-70.552;2022-09-14T08:31:48;92732.72;;;6.45;100.00
17521;BME280;8878;-33.370;-70.552;2022-09-14T08:34:19;92731.91;;;6.45;100.00
17521;BME280;8878;-33.370;-70.552;2022-09-14T08:36:48;92734.38;;;6.40;100.00
17521;BME280;8878;-33.370;-70.552;2022-09-14T08:39:18;92731.13;;;6.56;100.00
17521;BME280;8878;-33.370;-70.552;2022-09-14T08:41:54;92733.75;;;6.67;100.00
17521;BME280;8878;-33.370;-70.552;2022-09-14T08:44:28;92733.75;;;6.67;100.00
17521;BME280;8878;-33.370;-70.552;2022-09-14T08:47:02;92733.75;;;6.67;100.00
17521;BME280;8878;-33.370;-70.552;2022-09-14T08:49:43;92731.34;;;6.43;100.00
17521;BME280;8878;-33.370;-70.552;2022-09-14T08:52:17;92727.31;;;6.28;100.00
17521;BME280;8878;-33.370;-70.552;2022-09-14T08:54:53;92721.16;;;6.23;100.00
17521;BME280;8878;-33.370;-70.552;2022-09-14T08:57:27;92727.63;;;6.20;100.00
17521;BME280;8878;-33.370;-70.552;2022-09-14T09:00:06;92726.41;;;6.35;100.00
17521;BME280;8878;-33.370;-70.552;2022-09-14T09:05:47;92741.34;;;6.34;100.00
17521;BME280;8878;-33.370;-70.552;2022-09-14T09:08:23;92736.25;;;6.39;100.00
17521;BME280;8878;-33.370;-70.552;2022-09-14T09:10:58;92734.91;;;6.60;100.00
17521;BME280;8878;-33.370;-70.552;2022-09-14T09:13:31;92727.25;;;6.70;100.00
17521;BME280;8878;-33.370;-70.552;2022-09-14T09:16:07;92730.31;;;6.55;100.00
17521;BME280;8878;-33.370;-70.552;2022-09-14T09:18:44;92734.22;;;6.53;100.00
17521;BME280;8878;-33.370;-70.552;2022-09-14T09:21:16;92733.72;;;6.56;100.00
17521;BME280;8878;-33.370;-70.552;2022-09-14T09:23:47;92738.06;;;6.50;100.00
17521;BME280;8878;-33.370;-70.552;2022-09-14T09:26:21;92745.03;;;6.45;100.00
17521;BME280;8878;-33.370;-70.552;2022-09-14T09:28:53;92741.81;;;6.43;100.00
17521;BME280;8878;-33.370;-70.552;2022-09-14T09:31:28;92741.81;;;6.43;100.00
17521;BME280;8878;-33.370;-70.552;2022-09-14T09:34:00;92738.16;;;6.44;100.00
17521;BME280;8878;-33.370;-70.552;2022-09-14T09:36:33;92734.97;;;6.42;100.00
17521;BME280;8878;-33.370;-70.552;2022-09-14T09:39:04;92735.09;;;6.47;100.00
17521;BME280;8878;-33.370;-70.552;2022-09-14T09:41:42;92740.69;;;6.50;100.00
17521;BME280;8878;-33.370;-70.552;2022-09-14T09:44:12;92746.84;;;6.56;100.00
17521;BME280;8878;-33.370;-70.552;2022-09-14T09:46:48;92739.09;;;6.49;100.00
17521;BME280;8878;-33.370;-70.552;2022-09-14T09:49:22;92755.50;;;6.45;100.00
17521;BME280;8878;-33.370;-70.552;2022-09-14T09:51:52;92751.97;;;6.39;100.00
17521;BME280;8878;-33.370;-70.552;2022-09-14T09:54:24;92757.53;;;6.31;100.00
17521;BME280;8878;-33.370;-70.552;2022-09-14T09:56:56;92758.09;;;6.33;100.00
17521;BME280;8878;-33.370;-70.552;2022-09-14T09:59:32;92760.16;;;6.31;100.00
17521;BME280;8878;-33.370;-70.552;2022-09-14T10:02:26;92757.38;;;6.26;100.00
17521;BME280;8878;-33.370;-70.552;2022-09-14T10:04:58;92763.53;;;6.20;100.00
17521;BME280;8878;-33.370;-70.552;2022-09-14T10:07:29;92754.66;;;6.21;100.00
17521;BME280;8878;-33.370;-70.552;2022-09-14T10:10:05;92748.69;;;6.14;100.00
17521;BME280;8878;-33.370;-70.552;2022-09-14T10:12:37;92749.50;;;6.14;100.00
17521;BME280;8878;-33.370;-70.552;2022-09-14T10:15:13;92749.41;;;6.21;100.00
17521;BME280;8878;-33.370;-70.552;2022-09-14T10:18:07;92753.94;;;6.14;100.00
17521;BME280;8878;-33.370;-70.552;2022-09-14T10:20:38;92750.19;;;6.21;100.00
17521;BME280;8878;-33.370;-70.552;2022-09-14T10:23:23;92750.09;;;6.28;100.00
17521;BME280;8878;-33.370;-70.552;2022-09-14T10:26:23;92746.72;;;6.39;100.00
17521;BME280;8878;-33.370;-70.552;2022-09-14T10:28:53;92743.53;;;6.37;100.00
17521;BME280;8878;-33.370;-70.552;2022-09-14T10:31:27;92746.09;;;6.25;100.00
17521;BME280;8878;-33.370;-70.552;2022-09-14T10:34:00;92740.00;;;6.32;100.00
17521;BME280;8878;-33.370;-70.552;2022-09-14T10:36:31;92735.28;;;6.34;100.00
17521;BME280;8878;-33.370;-70.552;2022-09-14T10:39:07;92732.13;;;6.32;100.00
17521;BME280;8878;-33.370;-70.552;2022-09-14T10:41:47;92726.19;;;6.24;100.00
17521;BME280;8878;-33.370;-70.552;2022-09-14T10:44:49;92725.13;;;6.25;100.00
17521;BME280;8878;-33.370;-70.552;2022-09-14T10:47:37;92724.91;;;6.15;100.00
17521;BME280;8878;-33.370;-70.552;2022-09-14T10:50:26;92739.03;;;6.14;100.00
17521;BME280;8878;-33.370;-70.552;2022-09-14T10:53:04;92736.81;;;6.00;100.00
17521;BME280;8878;-33.370;-70.552;2022-09-14T10:55:42;92735.22;;;5.99;100.00
17521;BME280;8878;-33.370;-70.552;2022-09-14T10:58:34;92745.16;;;6.08;100.00
17521;BME280;8878;-33.370;-70.552;2022-09-14T11:01:15;92739.50;;;6.23;100.00
17521;BME280;8878;-33.370;-70.552;2022-09-14T11:03:57;92738.81;;;6.16;100.00
17521;BME280;8878;-33.370;-70.552;2022-09-14T11:06:38;92730.25;;;6.09;100.00
17521;BME280;8878;-33.370;-70.552;2022-09-14T11:09:20;92737.00;;;6.16;100.00
17521;BME280;8878;-33.370;-70.552;2022-09-14T11:11:59;92740.31;;;6.23;100.00
17521;BME280;8878;-33.370;-70.552;2022-09-14T11:14:49;92735.59;;;6.14;100.00
17521;BME280;8878;-33.370;-70.552;2022-09-14T11:17:48;92734.91;;;6.07;100.00
17521;BME280;8878;-33.370;-70.552;2022-09-14T11:20:27;92735.81;;;6.12;100.00
17521;BME280;8878;-33.370;-70.552;2022-09-14T11:23:14;92740.00;;;6.32;100.00
17521;BME280;8878;-33.370;-70.552;2022-09-14T11:25:51;92732.78;;;6.27;100.00
17521;BME280;8878;-33.370;-70.552;2022-09-14T11:28:24;92737.81;;;6.28;100.00
17521;BME280;8878;-33.370;-70.552;2022-09-14T11:31:03;92733.25;;;6.36;100.00
17521;BME280;8878;-33.370;-70.552;2022-09-14T11:33:36;92728.72;;;6.54;100.00
17521;BME280;8878;-33.370;-70.552;2022-09-14T11:36:13;92738.75;;;6.57;100.00
17521;BME280;8878;-33.370;-70.552;2022-09-14T11:38:48;92737.28;;;6.73;100.00
17521;BME280;8878;-33.370;-70.552;2022-09-14T11:41:25;92742.50;;;6.96;100.00
17521;BME280;8878;-33.370;-70.552;2022-09-14T11:43:58;92746.28;;;7.12;100.00
17521;BME280;8878;-33.370;-70.552;2022-09-14T11:46:32;92749.59;;;7.07;100.00
17521;BME280;8878;-33.370;-70.552;2022-09-14T11:49:10;92755.03;;;7.18;100.00
17521;BME280;8878;-33.370;-70.552;2022-09-14T11:51:47;92761.66;;;7.32;100.00
17521;BME280;8878;-33.370;-70.552;2022-09-14T11:54:20;92760.88;;;7.31;98.95
17521;BME280;8878;-33.370;-70.552;2022-09-14T11:56:52;92753.38;;;7.63;97.68
17521;BME280;8878;-33.370;-70.552;2022-09-14T11:59:45;92750.16;;;7.73;95.05
17521;BME280;8878;-33.370;-70.552;2022-09-14T12:02:54;92745.66;;;7.85;96.78
17521;BME280;8878;-33.370;-70.552;2022-09-14T12:05:33;92749.00;;;8.09;97.47
17521;BME280;8878;-33.370;-70.552;2022-09-14T12:08:27;92748.63;;;8.17;96.22
17521;BME280;8878;-33.370;-70.552;2022-09-14T12:11:26;92757.91;;;8.36;96.62
17521;BME280;8878;-33.370;-70.552;2022-09-14T12:14:26;92759.66;;;8.47;96.21
17521;BME280;8878;-33.370;-70.552;2022-09-14T12:17:12;92760.31;;;8.54;95.55
17521;BME280;8878;-33.370;-70.552;2022-09-14T12:19:44;92764.69;;;8.49;95.76
17521;BME280;8878;-33.370;-70.552;2022-09-14T12:22:28;92765.25;;;8.51;97.08
17521;BME280;8878;-33.370;-70.552;2022-09-14T12:25:00;92767.16;;;8.55;96.07
17521;BME280;8878;-33.370;-70.552;2022-09-14T12:27:35;92771.31;;;8.68;94.85
17521;BME280;8878;-33.370;-70.552;2022-09-14T12:33:40;92763.09;;;8.98;93.35
17521;BME280;8878;-33.370;-70.552;2022-09-14T12:36:11;92772.19;;;9.07;91.99
17521;BME280;8878;-33.370;-70.552;2022-09-14T12:39:19;92754.88;;;9.11;91.00
17521;BME280;8878;-33.370;-70.552;2022-09-14T12:42:25;92747.81;;;9.33;90.88
17521;BME280;8878;-33.370;-70.552;2022-09-14T12:44:56;92748.06;;;9.54;90.28
17521;BME280;8878;-33.370;-70.552;2022-09-14T12:47:55;92742.75;;;9.70;89.15
17521;BME280;8878;-33.370;-70.552;2022-09-14T12:50:28;92747.09;;;9.81;88.65
17521;BME280;8878;-33.370;-70.552;2022-09-14T12:53:24;92747.25;;;9.97;87.05
17521;BME280;8878;-33.370;-70.552;2022-09-14T12:56:01;92741.50;;;10.00;85.04
17521;BME280;8878;-33.370;-70.552;2022-09-14T12:58:52;92744.38;;;9.98;84.42
17521;BME280;8878;-33.370;-70.552;2022-09-14T13:01:34;92736.47;;;10.20;84.26
17521;BME280;8878;-33.370;-70.552;2022-09-14T13:04:12;92730.59;;;10.40;83.76
17521;BME280;8878;-33.370;-70.552;2022-09-14T13:06:44;92722.31;;;10.58;82.23
17521;BME280;8878;-33.370;-70.552;2022-09-14T13:09:19;92728.78;;;10.72;81.64
17521;BME280;8878;-33.370;-70.552;2022-09-14T13:11:53;92725.16;;;10.83;80.72
17521;BME280;8878;-33.370;-70.552;2022-09-14T13:14:26;92726.03;;;10.94;79.37
17521;BME280;8878;-33.370;-70.552;2022-09-14T13:16:59;92732.63;;;10.96;81.89
17521;BME280;8878;-33.370;-70.552;2022-09-14T13:19:32;92737.38;;;10.94;81.37
17521;BME280;8878;-33.370;-70.552;2022-09-14T13:22:02;92727.03;;;10.88;81.28
17521;BME280;8878;-33.370;-70.552;2022-09-14T13:24:45;92733.69;;;10.95;80.15